Time;durP1;ratioP1;P1;durP2;ratioP2;P2;SDS_P1;SDS_P2;PMS_P1;PMS_P2;Temp;Humidity;BMP_temperature;BMP_pressure;BME280_temperature;BME280_humidity;BME280_pressure;Samples;Min_cycle;Max_cycle;Signal;HPM_P1;HPM_P2
2022/03/03 00:02:14;;;;;;;13.45;9.80;;;15.70;37.30;;;;;;5053344;28;20490;-41
2022/03/03 00:04:39;;;;;;;11.73;9.68;;;15.70;37.30;;;;;;5053931;28;20031;-40
2022/03/03 00:07:06;;;;;;;12.88;10.07;;;15.80;37.30;;;;;;5053655;28;20032;-41
2022/03/03 00:09:33;;;;;;;11.43;9.68;;;15.70;37.40;;;;;;5052296;28;20031;-42
2022/03/03 00:11:59;;;;;;;10.65;9.55;;;15.70;37.30;;;;;;5055006;28;20031;-44
2022/03/03 00:14:26;;;;;;;16.30;10.50;;;15.70;37.40;;;;;;5056229;28;20096;-43
2022/03/03 00:16:52;;;;;;;12.75;9.75;;;15.70;37.30;;;;;;5055648;28;20066;-44
2022/03/03 00:19:18;;;;;;;12.85;10.07;;;15.70;37.30;;;;;;5054720;28;20394;-41
2022/03/03 00:21:44;;;;;;;14.68;10.05;;;15.70;37.20;;;;;;5054114;28;20021;-42
2022/03/03 00:24:10;;;;;;;12.05;10.00;;;15.70;37.40;;;;;;5054438;28;20443;-40
2022/03/03 00:26:37;;;;;;;13.45;9.75;;;15.70;37.40;;;;;;5054085;28;20487;-39
2022/03/03 00:29:04;;;;;;;12.20;9.65;;;15.70;37.30;;;;;;5054231;28;20092;-39
2022/03/03 00:31:30;;;;;;;11.95;10.30;;;15.70;37.30;;;;;;5053598;28;20085;-40
2022/03/03 00:33:57;;;;;;;12.75;9.68;;;15.70;37.30;;;;;;5053792;28;20009;-39
2022/03/03 00:36:24;;;;;;;11.98;9.95;;;15.70;37.40;;;;;;5054426;28;20017;-40
2022/03/03 00:38:50;;;;;;;12.00;9.95;;;15.70;37.30;;;;;;5053082;28;20479;-39
2022/03/03 00:41:17;;;;;;;12.82;10.05;;;15.70;37.30;;;;;;5055047;28;20016;-40
2022/03/03 00:43:42;;;;;;;11.50;9.23;;;15.70;37.30;;;;;;5055376;28;20077;-44
2022/03/03 00:46:08;;;;;;;12.68;9.65;;;15.70;37.30;;;;;;5053880;28;20017;-46
2022/03/03 00:48:34;;;;;;;12.23;9.55;;;15.70;37.20;;;;;;5053496;28;20022;-41
2022/03/03 00:51:04;;;;;;;12.63;9.98;;;15.70;37.20;;;;;;5054517;28;20083;-44
2022/03/03 00:53:29;;;;;;;11.57;9.85;;;15.60;37.10;;;;;;5054376;28;20016;-43
2022/03/03 00:55:55;;;;;;;11.98;10.15;;;15.70;37.20;;;;;;5053238;28;20112;-42
2022/03/03 00:58:22;;;;;;;11.98;9.63;;;15.60;37.20;;;;;;5052445;28;20079;-40
2022/03/03 01:00:49;;;;;;;12.23;10.13;;;15.60;37.20;;;;;;5054163;28;20029;-41
2022/03/03 01:03:16;;;;;;;11.85;9.73;;;15.70;37.30;;;;;;5054183;28;20041;-40
2022/03/03 01:05:42;;;;;;;14.07;10.05;;;15.60;37.30;;;;;;5052958;28;20017;-41
2022/03/03 01:08:10;;;;;;;11.63;9.60;;;15.60;37.20;;;;;;5053197;28;20029;-40
2022/03/03 01:10:39;;;;;;;14.40;10.52;;;15.70;37.20;;;;;;5052951;28;20047;-42
2022/03/03 01:13:05;;;;;;;12.38;9.80;;;15.70;37.20;;;;;;5053964;28;20067;-41
2022/03/03 01:15:31;;;;;;;12.30;9.90;;;15.60;37.10;;;;;;5054834;28;20017;-43
2022/03/03 01:17:56;;;;;;;11.65;9.68;;;15.70;37.10;;;;;;5054847;28;20013;-44
2022/03/03 01:20:23;;;;;;;12.63;9.90;;;15.60;37.10;;;;;;5056240;28;20100;-45
2022/03/03 01:22:49;;;;;;;12.00;9.85;;;15.60;37.10;;;;;;5059066;28;20064;-45
2022/03/03 01:25:15;;;;;;;11.68;9.38;;;15.60;37.20;;;;;;5059640;28;20009;-41
2022/03/03 01:27:41;;;;;;;12.75;10.00;;;15.60;37.70;;;;;;5059072;28;20377;-40
2022/03/03 01:30:09;;;;;;;12.90;10.27;;;15.60;37.10;;;;;;5058755;28;20360;-43
2022/03/03 01:32:36;;;;;;;12.32;9.93;;;15.60;37.10;;;;;;5059273;28;20464;-40
2022/03/03 01:35:01;;;;;;;14.40;10.18;;;15.60;37.10;;;;;;5059209;28;20028;-41
2022/03/03 01:37:28;;;;;;;13.18;9.57;;;15.60;37.10;;;;;;5057386;28;20025;-40
2022/03/03 01:39:54;;;;;;;13.40;10.23;;;15.60;37.10;;;;;;5058595;28;20471;-42
2022/03/03 01:42:20;;;;;;;11.35;9.82;;;15.60;37.00;;;;;;5058117;28;20017;-41
2022/03/03 01:44:46;;;;;;;11.07;9.38;;;15.60;37.10;;;;;;5059765;28;20025;-43
2022/03/03 01:47:19;;;;;;;11.55;9.77;;;15.60;37.10;;;;;;5059638;28;20110;-42
2022/03/03 01:49:46;;;;;;;11.57;9.55;;;15.60;37.10;;;;;;5059937;28;20017;-42
2022/03/03 01:52:12;;;;;;;11.48;9.77;;;15.60;37.10;;;;;;5059826;28;20016;-44
2022/03/03 01:54:39;;;;;;;13.57;10.20;;;15.60;37.10;;;;;;5059912;28;20533;-40
2022/03/03 01:57:08;;;;;;;12.27;9.50;;;15.60;37.10;;;;;;5057941;28;20025;-41
2022/03/03 01:59:34;;;;;;;12.88;10.05;;;15.60;37.00;;;;;;5057487;28;20044;-42
2022/03/03 02:02:00;;;;;;;12.93;10.23;;;15.60;37.10;;;;;;5057649;28;20669;-42
2022/03/03 02:04:27;;;;;;;12.77;10.10;;;15.60;36.90;;;;;;5058082;28;20471;-41
2022/03/03 02:06:52;;;;;;;12.60;9.95;;;15.60;37.20;;;;;;5058178;28;20025;-44
2022/03/03 02:09:18;;;;;;;13.00;9.95;;;15.50;36.90;;;;;;5057854;28;20024;-42
2022/03/03 02:11:47;;;;;;;11.63;9.75;;;15.50;37.10;;;;;;5039339;28;20013;-42
2022/03/03 02:14:14;;;;;;;12.70;10.33;;;15.50;37.20;;;;;;5055377;28;20037;-39
2022/03/03 02:16:40;;;;;;;12.70;10.30;;;15.50;37.10;;;;;;5054499;28;20028;-39
2022/03/03 02:19:06;;;;;;;12.85;10.23;;;15.50;37.10;;;;;;5054138;28;20466;-40
2022/03/03 02:21:32;;;;;;;12.35;10.02;;;15.50;37.10;;;;;;5054607;28;20036;-39
2022/03/03 02:23:58;;;;;;;16.33;10.50;;;15.50;37.00;;;;;;5055180;28;20471;-39
2022/03/03 02:26:24;;;;;;;11.55;9.82;;;15.50;37.10;;;;;;5056315;28;20017;-45
2022/03/03 02:28:51;;;;;;;13.60;10.10;;;15.50;37.10;;;;;;5058352;28;20113;-44
2022/03/03 02:31:18;;;;;;;12.18;9.98;;;15.50;37.00;;;;;;5058362;28;20041;-41
2022/03/03 02:33:44;;;;;;;11.80;9.82;;;15.50;37.00;;;;;;5058710;28;20013;-40
2022/03/03 02:36:23;;;;;;;13.32;10.55;;;15.50;37.00;;;;;;5058820;28;20021;-39
2022/03/03 02:38:51;;;;;;;14.00;10.05;;;15.50;37.00;;;;;;5059410;28;20471;-43
2022/03/03 02:41:18;;;;;;;12.18;9.80;;;15.50;37.20;;;;;;5058545;28;20017;-42
2022/03/03 02:43:44;;;;;;;13.57;10.52;;;15.50;37.20;;;;;;5057579;28;20045;-40
2022/03/03 02:46:11;;;;;;;12.90;10.35;;;15.50;37.20;;;;;;5057359;28;20028;-41
2022/03/03 02:48:38;;;;;;;12.30;10.00;;;15.50;37.10;;;;;;5057360;28;20534;-40
2022/03/03 02:51:04;;;;;;;12.77;10.13;;;15.50;37.00;;;;;;5057460;28;20483;-39
2022/03/03 02:53:30;;;;;;;13.63;10.50;;;15.50;37.00;;;;;;5058083;28;20017;-42
2022/03/03 02:55:56;;;;;;;12.48;10.15;;;15.50;37.60;;;;;;5058109;28;20009;-40
2022/03/03 02:58:22;;;;;;;13.00;10.35;;;15.50;37.00;;;;;;5054660;28;20078;-43
2022/03/03 03:00:48;;;;;;;12.60;9.63;;;15.50;37.00;;;;;;5055965;28;20016;-39
2022/03/03 03:03:14;;;;;;;11.57;9.95;;;15.50;37.00;;;;;;5055886;28;20426;-40
2022/03/03 03:05:40;;;;;;;13.68;10.77;;;15.50;37.20;;;;;;5056451;28;20105;-40
2022/03/03 03:08:06;;;;;;;13.60;10.68;;;15.40;37.10;;;;;;5055397;28;20483;-39
2022/03/03 03:10:32;;;;;;;13.35;10.20;;;15.40;37.20;;;;;;5056297;28;20033;-39
2022/03/03 03:12:58;;;;;;;12.18;9.82;;;15.40;37.20;;;;;;5055414;28;20059;-38
2022/03/03 03:15:27;;;;;;;12.55;9.82;;;15.40;37.10;;;;;;5056146;28;20017;-38
2022/03/03 03:17:53;;;;;;;13.07;10.57;;;15.40;37.10;;;;;;5056152;28;20028;-38
2022/03/03 03:20:19;;;;;;;13.82;10.50;;;15.40;37.40;;;;;;5056300;28;20028;-41
2022/03/03 03:22:45;;;;;;;13.60;10.60;;;15.40;37.20;;;;;;5055967;28;20020;-38
2022/03/03 03:25:12;;;;;;;12.65;10.38;;;15.40;37.10;;;;;;5055656;28;20032;-39
2022/03/03 03:27:39;;;;;;;11.75;9.60;;;15.40;37.30;;;;;;5055041;28;20035;-39
2022/03/03 03:30:07;;;;;;;11.50;9.90;;;15.40;37.20;;;;;;5054663;28;20036;-39
2022/03/03 03:32:33;;;;;;;12.93;10.23;;;15.40;37.40;;;;;;5054722;28;20013;-39
2022/03/03 03:34:59;;;;;;;12.43;10.40;;;15.40;37.20;;;;;;5054915;28;20097;-37
2022/03/03 03:37:25;;;;;;;12.77;10.18;;;15.40;37.30;;;;;;5054759;28;20551;-37
2022/03/03 03:39:52;;;;;;;12.88;10.52;;;15.40;37.30;;;;;;5054540;28;20108;-37
2022/03/03 03:42:18;;;;;;;12.65;10.48;;;15.30;37.20;;;;;;5054390;28;20048;-37
2022/03/03 03:44:44;;;;;;;13.80;10.38;;;15.40;37.50;;;;;;5054267;28;20037;-36
2022/03/03 03:47:12;;;;;;;12.15;10.65;;;15.30;37.30;;;;;;5054296;28;20063;-36
2022/03/03 03:49:39;;;;;;;13.85;10.48;;;15.30;37.60;;;;;;5054239;28;20021;-36
2022/03/03 03:52:06;;;;;;;13.35;10.50;;;15.30;37.60;;;;;;5053780;28;20020;-35
2022/03/03 03:54:32;;;;;;;14.60;10.60;;;15.30;37.30;;;;;;5054059;28;20021;-35
2022/03/03 03:56:57;;;;;;;10.65;9.52;;;15.30;37.30;;;;;;5054458;28;20017;-36
2022/03/03 03:59:24;;;;;;;15.40;10.85;;;15.30;37.20;;;;;;5054164;28;20017;-35
2022/03/03 04:01:50;;;;;;;13.25;10.35;;;15.30;37.30;;;;;;5054442;28;20024;-38
2022/03/03 04:04:16;;;;;;;12.70;10.10;;;15.30;37.30;;;;;;5054461;28;20021;-37
2022/03/03 04:06:43;;;;;;;11.93;10.48;;;15.30;37.50;;;;;;5054898;28;20033;-36
2022/03/03 04:09:09;;;;;;;12.23;10.13;;;15.30;37.40;;;;;;5054726;28;20548;-37
2022/03/03 04:11:35;;;;;;;13.82;10.93;;;15.30;37.40;;;;;;5054275;28;20067;-36
2022/03/03 04:14:01;;;;;;;12.82;10.52;;;15.30;37.50;;;;;;5053740;28;20025;-36
2022/03/03 04:16:27;;;;;;;13.00;10.38;;;15.30;37.60;;;;;;5053358;28;20108;-36
2022/03/03 04:18:54;;;;;;;12.15;10.43;;;15.30;37.50;;;;;;5053422;28;20024;-36
2022/03/03 04:21:20;;;;;;;12.88;10.93;;;15.30;37.40;;;;;;5054002;28;20467;-37
2022/03/03 04:23:46;;;;;;;13.45;10.38;;;15.30;37.50;;;;;;5055362;28;20049;-37
2022/03/03 04:26:13;;;;;;;11.90;10.20;;;15.20;37.60;;;;;;5055341;28;20020;-37
2022/03/03 04:28:39;;;;;;;12.65;10.52;;;15.30;37.50;;;;;;5054985;28;20041;-37
2022/03/03 04:31:05;;;;;;;13.02;10.32;;;15.20;37.50;;;;;;5054672;28;20013;-37
2022/03/03 04:33:31;;;;;;;12.73;10.63;;;15.20;37.60;;;;;;5054896;28;20043;-37
2022/03/03 04:35:57;;;;;;;14.95;10.50;;;15.20;37.70;;;;;;5054446;28;20025;-37
2022/03/03 04:38:23;;;;;;;12.13;10.07;;;15.20;37.40;;;;;;5054602;28;20027;-38
2022/03/03 04:40:49;;;;;;;12.80;10.07;;;15.30;37.60;;;;;;5054624;28;20021;-40
2022/03/03 04:43:15;;;;;;;14.18;10.18;;;15.20;37.50;;;;;;5055655;28;20525;-39
2022/03/03 04:45:41;;;;;;;13.50;10.32;;;15.20;37.50;;;;;;5056265;28;20112;-38
2022/03/03 04:48:08;;;;;;;12.88;10.68;;;15.20;37.50;;;;;;5054285;28;20024;-39
2022/03/03 04:50:34;;;;;;;12.07;10.25;;;15.20;37.60;;;;;;5055953;28;20054;-38
2022/03/03 04:52:59;;;;;;;13.25;10.70;;;15.20;37.60;;;;;;5055630;28;20024;-38
2022/03/03 04:55:25;;;;;;;12.05;10.32;;;15.20;37.80;;;;;;5056728;28;20526;-38
2022/03/03 04:57:52;;;;;;;13.45;10.40;;;15.20;37.80;;;;;;5058724;28;20021;-38
2022/03/03 05:00:18;;;;;;;11.75;10.20;;;15.20;37.60;;;;;;5059190;28;20025;-37
2022/03/03 05:02:45;;;;;;;14.80;11.07;;;15.20;37.70;;;;;;5058786;28;20025;-37
2022/03/03 05:05:11;;;;;;;12.90;10.07;;;15.20;37.80;;;;;;5058388;28;20092;-37
2022/03/03 05:07:38;;;;;;;11.27;9.88;;;15.20;37.70;;;;;;5058904;28;20064;-38
2022/03/03 05:10:04;;;;;;;12.23;10.38;;;15.20;37.60;;;;;;5057350;28;20380;-39
2022/03/03 05:12:30;;;;;;;13.23;10.40;;;15.10;37.60;;;;;;5059651;28;20041;-40
2022/03/03 05:14:57;;;;;;;12.13;10.10;;;15.20;37.80;;;;;;5060787;28;20733;-39
2022/03/03 05:17:23;;;;;;;11.98;10.18;;;15.20;37.80;;;;;;5061812;28;20039;-43
2022/03/03 05:19:49;;;;;;;12.75;10.13;;;15.10;37.70;;;;;;5061651;28;20043;-39
2022/03/03 05:22:15;;;;;;;11.25;9.63;;;15.10;37.90;;;;;;5060562;28;20467;-40
2022/03/03 05:24:42;;;;;;;12.27;10.13;;;15.10;37.70;;;;;;5059769;28;20094;-38
2022/03/03 05:27:08;;;;;;;11.55;9.95;;;15.10;37.70;;;;;;5059449;28;20052;-37
2022/03/03 05:29:35;;;;;;;13.57;10.75;;;15.10;37.80;;;;;;5059275;28;20013;-39
2022/03/03 05:32:01;;;;;;;11.38;10.15;;;15.10;37.90;;;;;;5059320;28;20033;-38
2022/03/03 05:34:27;;;;;;;13.25;10.68;;;15.10;37.90;;;;;;5059680;28;20013;-38
2022/03/03 05:36:54;;;;;;;12.93;10.23;;;15.10;37.90;;;;;;5059284;28;20028;-39
2022/03/03 05:39:20;;;;;;;12.98;11.30;;;15.10;37.90;;;;;;5059293;28;20071;-39
2022/03/03 05:41:47;;;;;;;12.05;10.35;;;15.10;38.00;;;;;;5057874;28;20021;-48
2022/03/03 05:44:13;;;;;;;12.18;9.85;;;15.10;37.90;;;;;;5058353;28;20067;-39
2022/03/03 05:46:42;;;;;;;12.63;10.50;;;15.10;37.90;;;;;;5058301;28;20025;-38
2022/03/03 05:49:09;;;;;;;12.68;9.98;;;15.10;37.90;;;;;;5056922;28;20033;-41
2022/03/03 05:51:35;;;;;;;14.65;10.48;;;15.10;37.90;;;;;;5058165;28;20016;-41
2022/03/03 05:54:01;;;;;;;12.93;10.20;;;15.10;38.00;;;;;;5058361;28;20045;-38
2022/03/03 05:56:28;;;;;;;12.60;9.70;;;15.10;38.00;;;;;;5058159;28;20036;-39
2022/03/03 05:58:53;;;;;;;11.75;10.30;;;15.10;37.90;;;;;;5023869;28;20070;-38
2022/03/03 06:01:19;;;;;;;12.63;10.05;;;15.10;37.90;;;;;;5040327;28;20497;-41
2022/03/03 06:03:46;;;;;;;11.80;9.95;;;15.10;37.90;;;;;;5057860;28;20025;-39
2022/03/03 06:06:19;;;;;;;12.90;10.05;;;15.10;38.00;;;;;;5056495;28;20020;-39
2022/03/03 06:08:52;;;;;;;12.38;9.57;;;15.10;37.90;;;;;;5058103;28;20491;-37
2022/03/03 06:11:19;;;;;;;12.57;10.43;;;15.00;37.90;;;;;;5057606;28;20479;-40
2022/03/03 06:13:46;;;;;;;13.65;9.98;;;15.00;38.00;;;;;;5055811;28;20009;-38
2022/03/03 06:16:17;;;;;;;12.98;10.50;;;15.00;37.90;;;;;;5056154;28;20486;-37
2022/03/03 06:18:43;;;;;;;15.00;10.85;;;15.00;37.90;;;;;;5056832;28;20070;-37
2022/03/03 06:21:11;;;;;;;12.20;9.30;;;15.00;37.90;;;;;;5055701;28;20021;-39
2022/03/03 06:23:38;;;;;;;12.75;10.25;;;15.10;37.90;;;;;;5056638;28;20076;-38
2022/03/03 06:26:05;;;;;;;13.90;10.43;;;15.00;38.00;;;;;;5057003;28;20013;-37
2022/03/03 06:28:31;;;;;;;11.25;9.93;;;15.00;37.90;;;;;;5058235;28;20050;-37
2022/03/03 06:30:57;;;;;;;13.90;10.45;;;15.00;37.90;;;;;;5057966;28;20025;-40
2022/03/03 06:33:23;;;;;;;11.38;9.65;;;15.00;38.00;;;;;;5057819;28;20012;-39
2022/03/03 06:35:49;;;;;;;12.90;10.20;;;15.00;38.10;;;;;;5056886;28;20017;-38
2022/03/03 06:38:15;;;;;;;11.93;9.57;;;15.00;38.00;;;;;;5058557;28;20484;-39
2022/03/03 06:40:41;;;;;;;11.38;9.63;;;15.00;38.10;;;;;;5041090;28;20052;-38
2022/03/03 06:43:07;;;;;;;11.40;9.48;;;15.00;38.00;;;;;;5059346;28;20037;-38
2022/03/03 06:45:33;;;;;;;11.57;9.68;;;15.00;38.00;;;;;;5058435;28;20025;-39
2022/03/03 06:48:00;;;;;;;12.45;9.63;;;15.00;38.00;;;;;;5059828;28;20029;-39
2022/03/03 06:50:26;;;;;;;11.13;9.35;;;15.00;37.90;;;;;;5059821;28;20059;-38
2022/03/03 06:52:52;;;;;;;12.95;9.77;;;15.00;37.90;;;;;;5059188;28;20092;-39
2022/03/03 06:55:25;;;;;;;13.55;9.60;;;15.10;37.80;;;;;;5059551;28;20106;-38
2022/03/03 06:57:55;;;;;;;12.32;9.93;;;15.30;37.40;;;;;;5059151;28;20021;-38
2022/03/03 07:00:23;;;;;;;10.73;9.32;;;15.70;36.80;;;;;;5058100;28;20096;-38
2022/03/03 07:02:50;;;;;;;11.05;9.68;;;15.90;36.20;;;;;;5057768;28;20025;-40
2022/03/03 07:05:16;;;;;;;10.95;9.68;;;16.10;35.80;;;;;;5040824;28;20028;-37
2022/03/03 07:07:44;;;;;;;11.65;9.55;;;16.30;35.40;;;;;;5057332;28;20021;-38
2022/03/03 07:10:14;;;;;;;11.90;9.18;;;16.40;35.10;;;;;;5059885;28;20036;-38
2022/03/03 07:12:40;;;;;;;11.98;9.35;;;16.50;34.60;;;;;;5057909;28;20021;-37
2022/03/03 07:15:06;;;;;;;12.02;8.88;;;16.40;34.70;;;;;;5056422;28;20490;-38
2022/03/03 07:17:45;;;;;;;13.18;9.75;;;16.30;35.00;;;;;;5057093;28;20013;-38
2022/03/03 07:20:13;;;;;;;13.73;9.50;;;16.10;35.20;;;;;;5058092;28;20017;-38
2022/03/03 07:23:02;;;;;;;11.75;9.73;;;16.10;35.20;;;;;;5056711;28;20112;-38
2022/03/03 07:25:35;;;;;;;14.23;9.55;;;16.20;35.40;;;;;;5057056;28;20017;-37
2022/03/03 07:28:02;;;;;;;12.90;9.18;;;16.20;35.30;;;;;;5056587;28;20079;-39
2022/03/03 07:30:27;;;;;;;12.68;9.68;;;16.20;35.10;;;;;;5056210;28;20037;-39
2022/03/03 07:33:04;;;;;;;11.18;9.15;;;16.20;35.10;;;;;;5057356;28;20016;-39
2022/03/03 07:35:30;;;;;;;15.30;9.25;;;16.30;34.90;;;;;;5057069;28;20092;-39
2022/03/03 07:37:58;;;;;;;11.93;9.45;;;16.40;34.70;;;;;;5057426;28;20017;-39
2022/03/03 07:40:27;;;;;;;14.27;9.65;;;16.50;34.70;;;;;;5058136;28;20024;-40
2022/03/03 07:42:54;;;;;;;12.55;8.88;;;16.50;34.60;;;;;;5056279;28;20048;-37
2022/03/03 07:45:21;;;;;;;15.75;9.23;;;16.60;34.50;;;;;;5058219;28;20482;-41
2022/03/03 07:47:51;;;;;;;13.52;8.93;;;16.60;34.40;;;;;;5057543;28;20099;-40
2022/03/03 07:50:16;;;;;;;15.88;10.32;;;16.70;34.30;;;;;;5056895;28;20009;-41
2022/03/03 07:52:45;;;;;;;11.77;8.88;;;16.80;34.20;;;;;;5056624;28;20079;-38
2022/03/03 07:55:14;;;;;;;15.33;9.17;;;16.90;34.10;;;;;;5056928;28;20028;-38
2022/03/03 07:57:44;;;;;;;15.10;8.95;;;17.00;33.90;;;;;;5054878;28;20505;-40
2022/03/03 08:00:13;;;;;;;12.52;8.93;;;17.00;33.80;;;;;;5055817;28;20017;-41
2022/03/03 08:02:40;;;;;;;13.05;8.60;;;17.10;33.70;;;;;;5054759;28;20033;-39
2022/03/03 08:05:06;;;;;;;11.57;8.82;;;17.20;33.60;;;;;;5055313;28;20092;-38
2022/03/03 08:07:43;;;;;;;15.45;9.02;;;17.30;33.50;;;;;;5055440;28;20390;-37
2022/03/03 08:10:09;;;;;;;12.38;8.63;;;17.40;33.40;;;;;;5056745;28;20009;-38
2022/03/03 08:12:35;;;;;;;14.38;9.07;;;17.40;33.20;;;;;;5055828;28;20033;-37
2022/03/03 08:15:01;;;;;;;14.35;8.90;;;17.50;33.10;;;;;;5054051;28;20035;-38
2022/03/03 08:17:26;;;;;;;13.77;8.80;;;17.60;33.00;;;;;;5055203;28;20025;-39
2022/03/03 08:19:54;;;;;;;12.95;8.63;;;17.60;32.90;;;;;;5055798;28;20031;-37
2022/03/03 08:22:20;;;;;;;12.02;8.85;;;17.70;32.80;;;;;;5055426;28;20017;-38
2022/03/03 08:24:46;;;;;;;11.55;8.52;;;17.80;32.70;;;;;;5037774;28;20501;-39
2022/03/03 08:27:12;;;;;;;14.13;8.77;;;17.90;32.60;;;;;;5053525;28;20033;-40
2022/03/03 08:29:38;;;;;;;12.68;8.15;;;18.00;32.40;;;;;;5053977;28;20009;-39
2022/03/03 08:32:05;;;;;;;13.60;8.35;;;18.00;32.40;;;;;;5054941;28;20112;-39
2022/03/03 08:34:46;;;;;;;11.68;8.38;;;18.10;32.40;;;;;;5036787;28;20009;-38
2022/03/03 08:37:24;;;;;;;10.85;7.95;;;18.10;32.20;;;;;;5053621;28;20033;-40
2022/03/03 08:39:49;;;;;;;14.43;9.02;;;18.30;32.10;;;;;;5054361;28;20009;-39
2022/03/03 08:42:15;;;;;;;13.27;8.38;;;18.30;32.00;;;;;;5037255;28;20105;-38
2022/03/03 08:44:43;;;;;;;12.43;8.40;;;18.40;31.90;;;;;;5054460;28;20060;-38
2022/03/03 08:47:08;;;;;;;12.02;8.45;;;18.40;31.80;;;;;;5055062;28;20547;-38
2022/03/03 08:49:39;;;;;;;15.40;9.68;;;18.40;31.80;;;;;;5057102;28;20084;-46
2022/03/03 08:52:06;;;;;;;13.05;8.32;;;18.50;31.70;;;;;;5056884;28;20017;-42
2022/03/03 08:54:32;;;;;;;13.48;8.55;;;18.60;31.60;;;;;;5056847;28;20036;-40
2022/03/03 08:56:58;;;;;;;13.52;8.25;;;18.60;31.60;;;;;;5054022;28;20099;-39
2022/03/03 08:59:25;;;;;;;11.75;7.90;;;18.70;31.50;;;;;;5053805;28;20479;-39
2022/03/03 09:01:51;;;;;;;12.90;8.18;;;18.70;31.40;;;;;;5053929;28;20029;-39
2022/03/03 09:04:18;;;;;;;11.38;7.65;;;18.80;31.40;;;;;;5053607;28;20009;-38
2022/03/03 09:06:44;;;;;;;13.98;8.00;;;18.90;31.30;;;;;;5054332;28;20017;-38
2022/03/03 09:09:11;;;;;;;11.30;8.30;;;18.90;31.20;;;;;;5052916;28;20013;-38
2022/03/03 09:11:36;;;;;;;12.15;7.93;;;18.90;31.20;;;;;;5054365;28;20025;-41
2022/03/03 09:14:02;;;;;;;10.18;7.97;;;19.00;31.20;;;;;;5057104;28;20021;-43
2022/03/03 09:16:29;;;;;;;11.57;8.32;;;19.00;31.10;;;;;;5056792;28;20025;-40
2022/03/03 09:18:54;;;;;;;12.35;7.80;;;19.10;31.10;;;;;;5056318;28;20024;-40
2022/03/03 09:21:21;;;;;;;11.10;7.80;;;19.10;31.00;;;;;;5057127;28;20499;-38
2022/03/03 09:23:47;;;;;;;11.73;8.13;;;19.10;30.90;;;;;;5057390;28;20029;-39
2022/03/03 09:26:13;;;;;;;10.73;8.13;;;19.10;30.90;;;;;;5055346;28;20028;-39
2022/03/03 09:28:39;;;;;;;12.80;7.82;;;19.20;31.00;;;;;;5056061;28;20033;-40
2022/03/03 09:31:05;;;;;;;13.23;8.35;;;19.20;31.00;;;;;;5055761;28;20464;-38
2022/03/03 09:33:33;;;;;;;10.98;7.80;;;19.20;31.00;;;;;;5054854;28;20017;-39
2022/03/03 09:35:59;;;;;;;11.77;7.97;;;19.20;30.90;;;;;;5055384;28;20021;-40
2022/03/03 09:38:25;;;;;;;11.57;8.20;;;19.30;30.80;;;;;;5054808;28;20021;-39
2022/03/03 09:40:51;;;;;;;13.13;8.00;;;19.30;30.80;;;;;;5056895;28;20017;-40
2022/03/03 09:43:17;;;;;;;10.57;7.95;;;19.30;30.70;;;;;;5058439;28;20064;-40
2022/03/03 09:45:43;;;;;;;10.70;8.38;;;19.40;30.70;;;;;;5060211;28;20054;-40
2022/03/03 09:48:09;;;;;;;11.20;7.70;;;19.40;30.70;;;;;;5058399;28;20072;-41
2022/03/03 09:50:37;;;;;;;13.68;8.40;;;19.40;30.70;;;;;;5058665;28;20017;-39
2022/03/03 09:53:11;;;;;;;9.43;7.95;;;19.40;30.60;;;;;;5059296;28;20017;-41
2022/03/03 09:55:40;;;;;;;11.15;7.97;;;19.40;30.60;;;;;;5058898;28;20104;-40
2022/03/03 09:58:06;;;;;;;11.00;8.05;;;19.50;30.70;;;;;;5057991;28;20059;-38
2022/03/03 10:00:37;;;;;;;12.07;8.48;;;19.50;30.60;;;;;;5057825;28;20035;-37
2022/03/03 10:03:09;;;;;;;11.00;8.13;;;19.50;30.60;;;;;;5056606;28;20097;-36
2022/03/03 10:05:42;;;;;;;11.32;8.20;;;19.50;30.60;;;;;;5057395;28;20021;-41
2022/03/03 10:08:12;;;;;;;10.90;8.32;;;19.50;30.50;;;;;;5057334;28;20098;-37
2022/03/03 10:10:42;;;;;;;11.60;8.63;;;19.60;30.60;;;;;;5056757;28;20013;-36
2022/03/03 10:13:09;;;;;;;11.02;7.97;;;19.60;30.50;;;;;;5056738;28;20071;-37
2022/03/03 10:15:38;;;;;;;10.45;8.68;;;19.60;30.60;;;;;;5056294;28;20017;-38
2022/03/03 10:18:06;;;;;;;12.95;8.68;;;19.60;30.60;;;;;;5056922;28;20013;-37
2022/03/03 10:20:50;;;;;;;13.40;8.82;;;19.60;30.60;;;;;;5056367;28;20021;-38
2022/03/03 10:23:18;;;;;;;13.77;8.52;;;19.60;30.70;;;;;;5056115;28;20472;-36
2022/03/03 10:25:45;;;;;;;13.45;8.35;;;19.60;30.60;;;;;;5055378;28;20013;-37
2022/03/03 10:28:19;;;;;;;9.95;7.88;;;19.60;30.60;;;;;;5059399;28;20086;-41
2022/03/03 10:31:04;;;;;;;11.25;8.52;;;19.60;30.60;;;;;;5060271;28;20017;-40
2022/03/03 10:33:32;;;;;;;11.77;8.23;;;19.60;30.70;;;;;;5059234;28;20028;-42
2022/03/03 10:36:06;;;;;;;11.80;8.10;;;19.60;30.60;;;;;;5059629;28;20033;-40
2022/03/03 10:38:35;;;;;;;12.77;8.60;;;19.60;30.70;;;;;;5059435;28;20033;-42
2022/03/03 10:41:01;;;;;;;12.25;8.25;;;19.60;30.60;;;;;;5057283;28;20468;-42
2022/03/03 10:43:30;;;;;;;10.98;8.75;;;19.70;30.70;;;;;;5057474;28;20060;-43
2022/03/03 10:46:01;;;;;;;13.63;8.87;;;19.60;30.70;;;;;;5057882;28;20016;-38
2022/03/03 10:48:27;;;;;;;12.00;8.75;;;19.60;30.70;;;;;;5056595;28;20340;-40
2022/03/03 10:50:54;;;;;;;12.52;9.10;;;19.60;30.80;;;;;;5058639;28;20013;-41
2022/03/03 10:53:22;;;;;;;14.38;9.10;;;19.60;30.90;;;;;;5057719;28;20052;-40
2022/03/03 10:56:09;;;;;;;9.25;8.20;;;19.60;31.00;;;;;;5057617;28;20013;-40
2022/03/03 10:58:54;;;;;;;12.05;8.95;;;19.50;31.00;;;;;;5057927;28;20017;-42
2022/03/03 11:01:24;;;;;;;12.98;9.02;;;19.50;31.00;;;;;;5057064;28;20025;-38
2022/03/03 11:03:50;;;;;;;11.38;8.55;;;19.50;31.10;;;;;;5057059;28;20067;-38
2022/03/03 11:06:21;;;;;;;11.40;9.10;;;19.50;31.10;;;;;;5056742;28;20021;-39
2022/03/03 11:08:48;;;;;;;11.95;8.48;;;19.50;31.20;;;;;;5056798;28;20372;-39
2022/03/03 11:11:14;;;;;;;10.88;8.75;;;19.40;31.30;;;;;;5055683;28;20088;-39
2022/03/03 11:13:42;;;;;;;11.27;8.93;;;19.40;31.30;;;;;;5055822;28;20021;-37
2022/03/03 11:16:07;;;;;;;12.25;8.60;;;19.40;31.30;;;;;;5056162;28;20024;-37
2022/03/03 11:18:34;;;;;;;12.70;9.27;;;19.30;31.40;;;;;;5056047;28;20027;-38
2022/03/03 11:21:00;;;;;;;9.93;8.90;;;19.30;31.50;;;;;;5056321;28;20115;-38
2022/03/03 11:23:40;;;;;;;11.77;8.73;;;19.30;31.60;;;;;;5057078;28;20044;-38
2022/03/03 11:26:07;;;;;;;;;;;19.30;31.70;;;;;;5058120;28;20075;-39
2022/03/03 11:28:36;;;;;;;10.70;8.52;;;19.20;31.70;;;;;;5057811;28;19912;-41
2022/03/03 11:31:21;;;;;;;11.05;8.95;;;19.30;31.80;;;;;;5057651;28;20017;-40
2022/03/03 11:33:47;;;;;;;12.60;8.98;;;19.20;31.80;;;;;;5057988;28;20023;-43
2022/03/03 11:36:20;;;;;;;11.52;9.32;;;19.20;31.90;;;;;;5056480;28;20005;-38
2022/03/03 11:39:00;;;;;;;12.90;9.30;;;19.10;32.00;;;;;;5057956;28;20074;-40
2022/03/03 11:41:45;;;;;;;9.75;8.75;;;19.10;32.00;;;;;;5055859;28;20025;-40
2022/03/03 11:44:14;;;;;;;12.02;9.20;;;19.10;32.20;;;;;;5056547;28;20036;-42
2022/03/03 11:46:47;;;;;;;12.20;8.88;;;19.00;32.20;;;;;;5058896;28;20403;-41
2022/03/03 11:49:20;;;;;;;13.80;9.30;;;19.00;32.30;;;;;;5058517;28;20024;-40
2022/03/03 11:51:50;;;;;;;11.38;8.77;;;19.00;32.40;;;;;;5053491;28;20009;-38
2022/03/03 11:54:24;;;;;;;11.63;9.40;;;18.90;32.40;;;;;;5053529;28;20045;-39
2022/03/03 11:57:08;;;;;;;10.75;8.65;;;18.90;32.50;;;;;;5057683;28;20013;-42
2022/03/03 11:59:42;;;;;;;12.57;9.32;;;18.80;32.60;;;;;;5056368;28;20105;-39
2022/03/03 12:02:08;;;;;;;9.65;8.63;;;18.80;32.70;;;;;;5055288;28;20061;-41
2022/03/03 12:04:34;;;;;;;13.25;9.13;;;18.80;32.80;;;;;;5057159;28;20455;-37
2022/03/03 12:07:00;;;;;;;11.70;9.00;;;18.70;32.90;;;;;;5057366;28;20023;-38
2022/03/03 12:09:29;;;;;;;12.18;9.13;;;18.70;33.00;;;;;;5057789;28;20017;-40
2022/03/03 12:12:08;;;;;;;11.55;8.25;;;18.70;33.00;;;;;;5055201;28;20066;-37
2022/03/03 12:14:36;;;;;;;9.88;8.27;;;18.70;33.10;;;;;;5054250;28;20036;-39
2022/03/03 12:17:42;;;;;;;11.50;8.93;;;18.60;33.20;;;;;;5055299;28;20016;-37
2022/03/03 12:20:34;;;;;;;10.68;8.88;;;18.60;33.30;;;;;;5055760;28;20013;-36
2022/03/03 12:23:03;;;;;;;12.13;9.23;;;18.50;33.30;;;;;;5055639;28;20109;-39
2022/03/03 12:25:47;;;;;;;11.00;9.00;;;18.50;33.40;;;;;;5056046;28;20040;-40
2022/03/03 12:28:17;;;;;;;10.88;9.18;;;18.50;33.50;;;;;;5056274;28;20171;-37
2022/03/03 12:30:46;;;;;;;10.30;9.03;;;18.40;33.50;;;;;;5055890;28;20111;-37
2022/03/03 12:33:29;;;;;;;12.48;9.55;;;18.40;33.60;;;;;;5056306;28;20023;-37
2022/03/03 12:36:06;;;;;;;11.10;9.10;;;18.40;33.70;;;;;;5056167;28;20079;-36
2022/03/03 12:38:35;;;;;;;11.13;9.43;;;18.30;33.80;;;;;;5055726;28;20029;-37